sensor_id;sensor_type;location;lat;lon;timestamp;P1;durP1;ratioP1;P2;durP2;ratioP2
8857;SDS011;4465;50.904;4.696;2024-03-29T00:01:42;2.33;;;0.88;;
8857;SDS011;4465;50.904;4.696;2024-03-29T00:04:09;5.18;;;0.90;;
8857;SDS011;4465;50.904;4.696;2024-03-29T00:06:35;9.50;;;1.48;;
8857;SDS011;4465;50.904;4.696;2024-03-29T00:09:03;4.78;;;0.85;;
8857;SDS011;4465;50.904;4.696;2024-03-29T00:11:29;10.43;;;1.15;;
8857;SDS011;4465;50.904;4.696;2024-03-29T00:16:22;7.53;;;1.00;;
8857;SDS011;4465;50.904;4.696;2024-03-29T00:18:51;3.13;;;0.80;;
8857;SDS011;4465;50.904;4.696;2024-03-29T00:21:20;3.97;;;0.82;;
8857;SDS011;4465;50.904;4.696;2024-03-29T00:23:46;2.90;;;0.90;;
8857;SDS011;4465;50.904;4.696;2024-03-29T00:26:16;3.35;;;0.98;;
8857;SDS011;4465;50.904;4.696;2024-03-29T00:28:42;6.30;;;0.90;;
8857;SDS011;4465;50.904;4.696;2024-03-29T00:31:10;5.32;;;0.90;;
8857;SDS011;4465;50.904;4.696;2024-03-29T00:33:36;2.95;;;0.80;;
8857;SDS011;4465;50.904;4.696;2024-03-29T00:36:02;5.38;;;1.05;;
8857;SDS011;4465;50.904;4.696;2024-03-29T00:38:29;4.90;;;1.03;;
8857;SDS011;4465;50.904;4.696;2024-03-29T00:40:57;4.97;;;0.90;;
8857;SDS011;4465;50.904;4.696;2024-03-29T00:43:23;9.93;;;1.10;;
8857;SDS011;4465;50.904;4.696;2024-03-29T00:45:49;5.30;;;0.90;;
8857;SDS011;4465;50.904;4.696;2024-03-29T00:48:16;2.78;;;0.80;;
8857;SDS011;4465;50.904;4.696;2024-03-29T00:50:45;3.08;;;1.10;;
8857;SDS011;4465;50.904;4.696;2024-03-29T00:53:11;4.43;;;1.02;;
8857;SDS011;4465;50.904;4.696;2024-03-29T00:55:37;2.25;;;0.93;;
8857;SDS011;4465;50.904;4.696;2024-03-29T00:58:03;8.45;;;0.98;;
8857;SDS011;4465;50.904;4.696;2024-03-29T01:00:29;5.40;;;0.73;;
8857;SDS011;4465;50.904;4.696;2024-03-29T01:02:55;3.90;;;0.90;;
8857;SDS011;4465;50.904;4.696;2024-03-29T01:07:48;5.97;;;0.82;;
8857;SDS011;4465;50.904;4.696;2024-03-29T01:10:14;6.07;;;1.05;;
8857;SDS011;4465;50.904;4.696;2024-03-29T01:12:40;4.72;;;0.90;;
8857;SDS011;4465;50.904;4.696;2024-03-29T01:15:06;6.35;;;1.00;;
8857;SDS011;4465;50.904;4.696;2024-03-29T01:17:32;10.77;;;1.38;;
8857;SDS011;4465;50.904;4.696;2024-03-29T01:19:58;6.15;;;0.88;;
8857;SDS011;4465;50.904;4.696;2024-03-29T01:22:25;5.32;;;1.17;;
8857;SDS011;4465;50.904;4.696;2024-03-29T01:24:51;3.83;;;0.90;;
8857;SDS011;4465;50.904;4.696;2024-03-29T01:27:17;4.95;;;0.98;;
8857;SDS011;4465;50.904;4.696;2024-03-29T01:29:43;2.70;;;0.90;;
8857;SDS011;4465;50.904;4.696;2024-03-29T01:32:09;3.50;;;1.10;;
8857;SDS011;4465;50.904;4.696;2024-03-29T01:34:42;5.60;;;0.80;;
8857;SDS011;4465;50.904;4.696;2024-03-29T01:37:08;2.25;;;0.80;;
8857;SDS011;4465;50.904;4.696;2024-03-29T01:39:36;1.85;;;0.70;;
8857;SDS011;4465;50.904;4.696;2024-03-29T01:42:02;2.15;;;0.80;;
8857;SDS011;4465;50.904;4.696;2024-03-29T01:44:28;3.90;;;0.68;;
8857;SDS011;4465;50.904;4.696;2024-03-29T01:46:55;5.60;;;0.90;;
8857;SDS011;4465;50.904;4.696;2024-03-29T01:49:21;3.08;;;0.68;;
8857;SDS011;4465;50.904;4.696;2024-03-29T01:51:47;1.70;;;0.68;;
8857;SDS011;4465;50.904;4.696;2024-03-29T01:54:16;2.72;;;0.57;;
8857;SDS011;4465;50.904;4.696;2024-03-29T01:56:43;1.77;;;0.60;;
8857;SDS011;4465;50.904;4.696;2024-03-29T01:59:13;2.83;;;0.80;;
8857;SDS011;4465;50.904;4.696;2024-03-29T02:01:45;1.35;;;0.60;;
8857;SDS011;4465;50.904;4.696;2024-03-29T02:04:11;0.90;;;0.52;;
8857;SDS011;4465;50.904;4.696;2024-03-29T02:06:38;7.68;;;1.00;;
8857;SDS011;4465;50.904;4.696;2024-03-29T02:09:04;3.40;;;0.60;;
8857;SDS011;4465;50.904;4.696;2024-03-29T02:11:30;1.35;;;0.50;;
8857;SDS011;4465;50.904;4.696;2024-03-29T02:13:57;3.55;;;0.43;;
8857;SDS011;4465;50.904;4.696;2024-03-29T02:16:23;3.13;;;0.70;;
8857;SDS011;4465;50.904;4.696;2024-03-29T02:18:49;1.33;;;0.60;;
8857;SDS011;4465;50.904;4.696;2024-03-29T02:21:17;2.97;;;0.70;;
8857;SDS011;4465;50.904;4.696;2024-03-29T02:23:44;0.98;;;0.47;;
8857;SDS011;4465;50.904;4.696;2024-03-29T02:26:16;1.88;;;0.40;;
8857;SDS011;4465;50.904;4.696;2024-03-29T02:28:42;3.95;;;0.50;;
8857;SDS011;4465;50.904;4.696;2024-03-29T02:31:10;1.95;;;0.60;;
8857;SDS011;4465;50.904;4.696;2024-03-29T02:33:36;1.38;;;0.55;;
8857;SDS011;4465;50.904;4.696;2024-03-29T02:36:02;1.35;;;0.57;;
8857;SDS011;4465;50.904;4.696;2024-03-29T02:38:28;1.40;;;0.40;;
8857;SDS011;4465;50.904;4.696;2024-03-29T02:40:54;1.30;;;0.80;;
8857;SDS011;4465;50.904;4.696;2024-03-29T02:43:23;1.63;;;0.80;;
8857;SDS011;4465;50.904;4.696;2024-03-29T02:45:49;3.40;;;0.98;;
8857;SDS011;4465;50.904;4.696;2024-03-29T02:48:15;3.45;;;0.85;;
8857;SDS011;4465;50.904;4.696;2024-03-29T02:50:45;4.32;;;0.88;;
8857;SDS011;4465;50.904;4.696;2024-03-29T02:53:13;2.08;;;0.52;;
8857;SDS011;4465;50.904;4.696;2024-03-29T02:55:41;4.50;;;0.70;;
8857;SDS011;4465;50.904;4.696;2024-03-29T03:00:33;0.95;;;0.50;;
8857;SDS011;4465;50.904;4.696;2024-03-29T03:02:59;7.25;;;0.70;;
8857;SDS011;4465;50.904;4.696;2024-03-29T03:05:25;3.90;;;0.77;;
8857;SDS011;4465;50.904;4.696;2024-03-29T03:07:51;2.50;;;0.73;;
8857;SDS011;4465;50.904;4.696;2024-03-29T03:10:35;0.68;;;0.40;;
8857;SDS011;4465;50.904;4.696;2024-03-29T03:13:22;2.58;;;0.68;;
8857;SDS011;4465;50.904;4.696;2024-03-29T03:15:48;5.18;;;0.73;;
8857;SDS011;4465;50.904;4.696;2024-03-29T03:18:14;1.70;;;0.57;;
8857;SDS011;4465;50.904;4.696;2024-03-29T03:20:40;2.53;;;1.17;;
8857;SDS011;4465;50.904;4.696;2024-03-29T03:23:08;6.40;;;0.88;;
8857;SDS011;4465;50.904;4.696;2024-03-29T03:25:38;1.10;;;0.63;;
8857;SDS011;4465;50.904;4.696;2024-03-29T03:28:04;3.90;;;0.68;;
8857;SDS011;4465;50.904;4.696;2024-03-29T03:30:30;4.10;;;0.45;;
8857;SDS011;4465;50.904;4.696;2024-03-29T03:32:56;10.15;;;0.95;;
8857;SDS011;4465;50.904;4.696;2024-03-29T03:35:24;1.98;;;0.57;;
8857;SDS011;4465;50.904;4.696;2024-03-29T03:37:50;2.97;;;0.75;;
8857;SDS011;4465;50.904;4.696;2024-03-29T03:40:16;4.22;;;0.77;;
8857;SDS011;4465;50.904;4.696;2024-03-29T03:42:42;5.72;;;0.90;;
8857;SDS011;4465;50.904;4.696;2024-03-29T03:45:10;2.13;;;0.80;;
8857;SDS011;4465;50.904;4.696;2024-03-29T03:47:36;3.75;;;1.45;;
8857;SDS011;4465;50.904;4.696;2024-03-29T03:50:02;2.65;;;1.00;;
8857;SDS011;4465;50.904;4.696;2024-03-29T03:52:28;5.05;;;0.70;;
8857;SDS011;4465;50.904;4.696;2024-03-29T03:54:54;1.80;;;0.90;;
8857;SDS011;4465;50.904;4.696;2024-03-29T03:57:21;2.45;;;0.73;;
8857;SDS011;4465;50.904;4.696;2024-03-29T03:59:49;2.90;;;0.57;;
8857;SDS011;4465;50.904;4.696;2024-03-29T04:02:15;4.75;;;0.80;;
8857;SDS011;4465;50.904;4.696;2024-03-29T04:04:41;1.98;;;0.95;;
8857;SDS011;4465;50.904;4.696;2024-03-29T04:07:07;4.95;;;1.05;;
8857;SDS011;4465;50.904;4.696;2024-03-29T04:09:33;3.42;;;0.90;;
8857;SDS011;4465;50.904;4.696;2024-03-29T04:12:01;1.27;;;0.60;;
8857;SDS011;4465;50.904;4.696;2024-03-29T04:14:27;3.38;;;0.88;;
8857;SDS011;4465;50.904;4.696;2024-03-29T04:16:56;2.58;;;0.65;;
8857;SDS011;4465;50.904;4.696;2024-03-29T04:19:22;3.92;;;0.65;;
8857;SDS011;4465;50.904;4.696;2024-03-29T04:21:48;2.10;;;0.63;;
8857;SDS011;4465;50.904;4.696;2024-03-29T04:24:16;4.00;;;1.00;;
8857;SDS011;4465;50.904;4.696;2024-03-29T04:26:46;1.67;;;0.65;;
8857;SDS011;4465;50.904;4.696;2024-03-29T04:29:12;4.05;;;0.70;;
8857;SDS011;4465;50.904;4.696;2024-03-29T04:31:44;1.77;;;0.73;;
8857;SDS011;4465;50.904;4.696;2024-03-29T04:34:13;4.25;;;0.90;;
8857;SDS011;4465;50.904;4.696;2024-03-29T04:36:43;5.20;;;1.17;;
8857;SDS011;4465;50.904;4.696;2024-03-29T04:39:09;3.22;;;1.05;;
8857;SDS011;4465;50.904;4.696;2024-03-29T04:41:37;5.53;;;1.00;;
8857;SDS011;4465;50.904;4.696;2024-03-29T04:44:05;3.20;;;0.88;;
8857;SDS011;4465;50.904;4.696;2024-03-29T04:46:33;4.20;;;0.80;;
8857;SDS011;4465;50.904;4.696;2024-03-29T04:49:03;3.47;;;1.25;;
8857;SDS011;4465;50.904;4.696;2024-03-29T04:51:29;3.97;;;0.90;;
8857;SDS011;4465;50.904;4.696;2024-03-29T04:53:55;4.07;;;1.00;;
8857;SDS011;4465;50.904;4.696;2024-03-29T04:56:24;4.53;;;0.98;;
8857;SDS011;4465;50.904;4.696;2024-03-29T04:58:52;1.50;;;0.55;;
8857;SDS011;4465;50.904;4.696;2024-03-29T05:01:21;1.42;;;0.60;;
8857;SDS011;4465;50.904;4.696;2024-03-29T05:03:46;2.83;;;0.75;;
8857;SDS011;4465;50.904;4.696;2024-03-29T05:06:16;5.22;;;0.70;;
8857;SDS011;4465;50.904;4.696;2024-03-29T05:08:42;3.33;;;0.77;;
8857;SDS011;4465;50.904;4.696;2024-03-29T05:11:08;5.93;;;0.55;;
8857;SDS011;4465;50.904;4.696;2024-03-29T05:13:38;4.90;;;0.85;;
8857;SDS011;4465;50.904;4.696;2024-03-29T05:16:07;6.57;;;1.00;;
8857;SDS011;4465;50.904;4.696;2024-03-29T05:18:35;6.18;;;1.10;;
8857;SDS011;4465;50.904;4.696;2024-03-29T05:21:01;4.82;;;0.90;;
8857;SDS011;4465;50.904;4.696;2024-03-29T05:23:30;3.50;;;1.40;;
8857;SDS011;4465;50.904;4.696;2024-03-29T05:25:58;3.10;;;1.15;;
8857;SDS011;4465;50.904;4.696;2024-03-29T05:28:26;2.58;;;1.05;;
8857;SDS011;4465;50.904;4.696;2024-03-29T05:30:52;6.75;;;1.55;;
8857;SDS011;4465;50.904;4.696;2024-03-29T05:33:21;5.38;;;1.20;;
8857;SDS011;4465;50.904;4.696;2024-03-29T05:35:47;10.20;;;2.00;;
8857;SDS011;4465;50.904;4.696;2024-03-29T05:38:13;2.17;;;0.90;;
8857;SDS011;4465;50.904;4.696;2024-03-29T05:40:42;6.45;;;1.23;;
8857;SDS011;4465;50.904;4.696;2024-03-29T05:43:14;3.20;;;1.25;;
8857;SDS011;4465;50.904;4.696;2024-03-29T05:45:40;6.90;;;1.25;;
8857;SDS011;4465;50.904;4.696;2024-03-29T05:48:08;3.65;;;1.10;;
8857;SDS011;4465;50.904;4.696;2024-03-29T05:50:37;5.40;;;1.50;;
8857;SDS011;4465;50.904;4.696;2024-03-29T05:53:03;1.58;;;0.90;;
8857;SDS011;4465;50.904;4.696;2024-03-29T05:55:32;8.07;;;1.20;;
8857;SDS011;4465;50.904;4.696;2024-03-29T05:57:58;4.18;;;1.13;;
8857;SDS011;4465;50.904;4.696;2024-03-29T06:00:29;2.65;;;1.13;;
8857;SDS011;4465;50.904;4.696;2024-03-29T06:02:57;3.80;;;1.05;;
8857;SDS011;4465;50.904;4.696;2024-03-29T06:05:23;2.10;;;1.13;;
8857;SDS011;4465;50.904;4.696;2024-03-29T06:07:49;4.18;;;1.23;;
8857;SDS011;4465;50.904;4.696;2024-03-29T06:10:17;4.15;;;1.00;;
8857;SDS011;4465;50.904;4.696;2024-03-29T06:12:45;2.60;;;0.88;;
8857;SDS011;4465;50.904;4.696;2024-03-29T06:15:11;2.17;;;1.02;;
8857;SDS011;4465;50.904;4.696;2024-03-29T06:17:56;5.07;;;1.13;;
8857;SDS011;4465;50.904;4.696;2024-03-29T06:20:23;7.63;;;2.17;;
8857;SDS011;4465;50.904;4.696;2024-03-29T06:22:49;2.50;;;1.10;;
8857;SDS011;4465;50.904;4.696;2024-03-29T06:25:18;3.28;;;1.02;;
8857;SDS011;4465;50.904;4.696;2024-03-29T06:27:46;3.67;;;1.15;;
8857;SDS011;4465;50.904;4.696;2024-03-29T06:30:17;3.40;;;1.20;;
8857;SDS011;4465;50.904;4.696;2024-03-29T06:32:45;3.00;;;1.10;;
8857;SDS011;4465;50.904;4.696;2024-03-29T06:35:14;5.47;;;1.40;;
8857;SDS011;4465;50.904;4.696;2024-03-29T06:37:45;3.85;;;1.20;;
8857;SDS011;4465;50.904;4.696;2024-03-29T06:40:11;9.48;;;1.13;;
8857;SDS011;4465;50.904;4.696;2024-03-29T06:42:38;4.13;;;1.30;;
8857;SDS011;4465;50.904;4.696;2024-03-29T06:45:04;1.42;;;0.88;;
8857;SDS011;4465;50.904;4.696;2024-03-29T06:47:31;2.47;;;0.85;;
8857;SDS011;4465;50.904;4.696;2024-03-29T06:49:57;1.88;;;0.85;;
8857;SDS011;4465;50.904;4.696;2024-03-29T06:52:23;3.95;;;1.13;;
8857;SDS011;4465;50.904;4.696;2024-03-29T06:54:53;2.20;;;1.10;;
8857;SDS011;4465;50.904;4.696;2024-03-29T06:57:24;3.72;;;0.90;;
8857;SDS011;4465;50.904;4.696;2024-03-29T06:59:56;2.58;;;1.48;;
8857;SDS011;4465;50.904;4.696;2024-03-29T07:02:23;6.03;;;1.83;;
8857;SDS011;4465;50.904;4.696;2024-03-29T07:04:49;2.67;;;0.90;;
8857;SDS011;4465;50.904;4.696;2024-03-29T07:07:17;8.27;;;1.10;;
8857;SDS011;4465;50.904;4.696;2024-03-29T07:09:43;3.80;;;1.25;;
8857;SDS011;4465;50.904;4.696;2024-03-29T07:12:11;3.05;;;1.30;;
8857;SDS011;4465;50.904;4.696;2024-03-29T07:14:39;5.40;;;1.20;;
8857;SDS011;4465;50.904;4.696;2024-03-29T07:17:07;2.83;;;1.10;;
8857;SDS011;4465;50.904;4.696;2024-03-29T07:19:33;4.40;;;1.38;;
8857;SDS011;4465;50.904;4.696;2024-03-29T07:22:02;2.40;;;1.10;;
8857;SDS011;4465;50.904;4.696;2024-03-29T07:24:27;3.05;;;1.35;;
8857;SDS011;4465;50.904;4.696;2024-03-29T07:26:56;2.30;;;1.35;;
8857;SDS011;4465;50.904;4.696;2024-03-29T07:29:22;3.30;;;1.10;;
8857;SDS011;4465;50.904;4.696;2024-03-29T07:31:48;4.75;;;1.27;;
8857;SDS011;4465;50.904;4.696;2024-03-29T07:34:16;2.38;;;1.15;;
8857;SDS011;4465;50.904;4.696;2024-03-29T07:36:42;5.25;;;1.30;;
8857;SDS011;4465;50.904;4.696;2024-03-29T07:39:10;2.45;;;1.38;;
8857;SDS011;4465;50.904;4.696;2024-03-29T07:41:37;5.55;;;1.70;;
8857;SDS011;4465;50.904;4.696;2024-03-29T07:44:05;3.38;;;1.52;;
8857;SDS011;4465;50.904;4.696;2024-03-29T07:46:35;3.28;;;1.60;;
8857;SDS011;4465;50.904;4.696;2024-03-29T07:49:05;5.43;;;1.65;;
8857;SDS011;4465;50.904;4.696;2024-03-29T07:51:31;4.47;;;1.48;;
8857;SDS011;4465;50.904;4.696;2024-03-29T07:53:57;5.78;;;1.77;;
8857;SDS011;4465;50.904;4.696;2024-03-29T07:56:23;4.38;;;1.48;;
8857;SDS011;4465;50.904;4.696;2024-03-29T07:58:52;8.68;;;1.70;;
8857;SDS011;4465;50.904;4.696;2024-03-29T08:01:24;3.10;;;1.45;;
8857;SDS011;4465;50.904;4.696;2024-03-29T08:03:50;5.32;;;1.40;;
8857;SDS011;4465;50.904;4.696;2024-03-29T08:06:20;6.45;;;1.92;;
8857;SDS011;4465;50.904;4.696;2024-03-29T08:08:49;4.22;;;2.05;;
8857;SDS011;4465;50.904;4.696;2024-03-29T08:11:16;3.55;;;1.70;;
8857;SDS011;4465;50.904;4.696;2024-03-29T08:13:42;5.35;;;1.90;;
8857;SDS011;4465;50.904;4.696;2024-03-29T08:16:10;9.48;;;2.30;;
8857;SDS011;4465;50.904;4.696;2024-03-29T08:18:39;4.50;;;1.92;;
8857;SDS011;4465;50.904;4.696;2024-03-29T08:21:05;5.03;;;1.92;;
8857;SDS011;4465;50.904;4.696;2024-03-29T08:23:39;4.15;;;1.70;;
8857;SDS011;4465;50.904;4.696;2024-03-29T08:26:06;7.30;;;1.90;;
8857;SDS011;4465;50.904;4.696;2024-03-29T08:28:33;2.13;;;1.40;;
8857;SDS011;4465;50.904;4.696;2024-03-29T08:31:04;5.22;;;2.47;;
8857;SDS011;4465;50.904;4.696;2024-03-29T08:33:35;4.07;;;2.10;;
8857;SDS011;4465;50.904;4.696;2024-03-29T08:36:05;4.10;;;1.80;;
8857;SDS011;4465;50.904;4.696;2024-03-29T08:38:33;3.65;;;1.70;;
8857;SDS011;4465;50.904;4.696;2024-03-29T08:41:00;3.83;;;1.73;;
8857;SDS011;4465;50.904;4.696;2024-03-29T08:43:26;3.27;;;2.00;;
8857;SDS011;4465;50.904;4.696;2024-03-29T08:45:52;4.82;;;1.98;;
8857;SDS011;4465;50.904;4.696;2024-03-29T08:48:18;5.07;;;2.00;;
8857;SDS011;4465;50.904;4.696;2024-03-29T08:50:44;5.70;;;2.00;;
8857;SDS011;4465;50.904;4.696;2024-03-29T08:53:10;3.60;;;2.00;;
8857;SDS011;4465;50.904;4.696;2024-03-29T08:55:36;6.05;;;2.00;;
8857;SDS011;4465;50.904;4.696;2024-03-29T08:58:05;3.60;;;2.13;;
8857;SDS011;4465;50.904;4.696;2024-03-29T09:00:31;2.85;;;1.73;;
8857;SDS011;4465;50.904;4.696;2024-03-29T09:02:58;4.03;;;1.60;;
8857;SDS011;4465;50.904;4.696;2024-03-29T09:05:27;2.90;;;1.63;;
8857;SDS011;4465;50.904;4.696;2024-03-29T09:07:54;3.40;;;1.60;;
8857;SDS011;4465;50.904;4.696;2024-03-29T09:10:23;4.70;;;1.67;;
8857;SDS011;4465;50.904;4.696;2024-03-29T09:12:52;7.25;;;1.88;;
8857;SDS011;4465;50.904;4.696;2024-03-29T09:15:18;2.90;;;1.27;;
8857;SDS011;4465;50.904;4.696;2024-03-29T09:17:44;4.07;;;1.80;;
8857;SDS011;4465;50.904;4.696;2024-03-29T09:20:11;2.60;;;1.47;;
8857;SDS011;4465;50.904;4.696;2024-03-29T09:22:37;8.18;;;1.83;;
8857;SDS011;4465;50.904;4.696;2024-03-29T09:25:03;2.30;;;1.20;;
8857;SDS011;4465;50.904;4.696;2024-03-29T09:27:32;3.45;;;1.35;;
8857;SDS011;4465;50.904;4.696;2024-03-29T09:30:03;2.80;;;1.20;;
8857;SDS011;4465;50.904;4.696;2024-03-29T09:32:32;2.55;;;1.10;;
8857;SDS011;4465;50.904;4.696;2024-03-29T09:34:58;2.92;;;1.17;;
8857;SDS011;4465;50.904;4.696;2024-03-29T09:37:25;1.45;;;0.95;;
8857;SDS011;4465;50.904;4.696;2024-03-29T09:39:54;3.03;;;1.10;;
8857;SDS011;4465;50.904;4.696;2024-03-29T09:42:23;2.60;;;1.02;;
8857;SDS011;4465;50.904;4.696;2024-03-29T09:44:56;1.30;;;0.88;;
8857;SDS011;4465;50.904;4.696;2024-03-29T09:47:24;1.60;;;0.90;;
8857;SDS011;4465;50.904;4.696;2024-03-29T09:49:52;1.10;;;0.82;;
8857;SDS011;4465;50.904;4.696;2024-03-29T09:52:20;1.27;;;0.85;;
8857;SDS011;4465;50.904;4.696;2024-03-29T09:54:46;1.75;;;0.73;;
8857;SDS011;4465;50.904;4.696;2024-03-29T09:57:12;1.55;;;0.63;;
8857;SDS011;4465;50.904;4.696;2024-03-29T09:59:40;6.18;;;0.95;;
8857;SDS011;4465;50.904;4.696;2024-03-29T10:02:16;1.58;;;0.88;;
8857;SDS011;4465;50.904;4.696;2024-03-29T10:04:44;1.35;;;0.60;;
8857;SDS011;4465;50.904;4.696;2024-03-29T10:07:11;6.65;;;0.85;;
8857;SDS011;4465;50.904;4.696;2024-03-29T10:09:41;2.05;;;0.85;;
8857;SDS011;4465;50.904;4.696;2024-03-29T10:12:09;2.08;;;1.00;;
8857;SDS011;4465;50.904;4.696;2024-03-29T10:14:47;2.63;;;0.93;;
8857;SDS011;4465;50.904;4.696;2024-03-29T10:17:32;1.75;;;1.00;;
8857;SDS011;4465;50.904;4.696;2024-03-29T10:20:01;4.97;;;1.20;;
8857;SDS011;4465;50.904;4.696;2024-03-29T10:22:40;1.38;;;1.00;;
8857;SDS011;4465;50.904;4.696;2024-03-29T10:25:09;1.38;;;0.80;;
8857;SDS011;4465;50.904;4.696;2024-03-29T10:27:38;3.05;;;0.90;;
8857;SDS011;4465;50.904;4.696;2024-03-29T10:30:05;3.20;;;1.00;;
8857;SDS011;4465;50.904;4.696;2024-03-29T10:32:40;1.23;;;0.80;;
8857;SDS011;4465;50.904;4.696;2024-03-29T10:35:08;2.08;;;0.90;;
8857;SDS011;4465;50.904;4.696;2024-03-29T10:37:35;2.20;;;1.10;;
8857;SDS011;4465;50.904;4.696;2024-03-29T10:40:07;4.72;;;1.00;;
8857;SDS011;4465;50.904;4.696;2024-03-29T10:42:34;1.42;;;0.93;;
8857;SDS011;4465;50.904;4.696;2024-03-29T10:45:04;2.85;;;1.20;;
8857;SDS011;4465;50.904;4.696;2024-03-29T10:47:34;1.58;;;1.00;;
8857;SDS011;4465;50.904;4.696;2024-03-29T10:50:00;3.50;;;1.77;;
8857;SDS011;4465;50.904;4.696;2024-03-29T10:52:28;2.03;;;1.00;;
8857;SDS011;4465;50.904;4.696;2024-03-29T10:54:56;1.85;;;0.80;;
8857;SDS011;4465;50.904;4.696;2024-03-29T10:57:23;3.60;;;0.80;;
8857;SDS011;4465;50.904;4.696;2024-03-29T11:02:28;1.73;;;0.68;;
8857;SDS011;4465;50.904;4.696;2024-03-29T11:05:01;1.75;;;1.02;;
8857;SDS011;4465;50.904;4.696;2024-03-29T11:07:31;2.13;;;0.70;;
8857;SDS011;4465;50.904;4.696;2024-03-29T11:10:03;1.60;;;0.60;;
8857;SDS011;4465;50.904;4.696;2024-03-29T11:12:30;2.03;;;0.63;;
8857;SDS011;4465;50.904;4.696;2024-03-29T11:15:05;2.88;;;0.70;;
8857;SDS011;4465;50.904;4.696;2024-03-29T11:17:38;1.40;;;0.70;;
8857;SDS011;4465;50.904;4.696;2024-03-29T11:20:04;2.20;;;0.75;;
8857;SDS011;4465;50.904;4.696;2024-03-29T11:22:30;3.58;;;0.82;;
8857;SDS011;4465;50.904;4.696;2024-03-29T11:24:57;1.23;;;0.60;;
8857;SDS011;4465;50.904;4.696;2024-03-29T11:27:28;0.45;;;0.45;;
8857;SDS011;4465;50.904;4.696;2024-03-29T11:29:54;1.15;;;0.47;;
8857;SDS011;4465;50.904;4.696;2024-03-29T11:32:36;3.25;;;0.82;;
8857;SDS011;4465;50.904;4.696;2024-03-29T11:35:04;1.85;;;0.60;;
8857;SDS011;4465;50.904;4.696;2024-03-29T11:37:31;1.77;;;0.80;;
8857;SDS011;4465;50.904;4.696;2024-03-29T11:40:03;2.97;;;0.52;;
8857;SDS011;4465;50.904;4.696;2024-03-29T11:42:44;1.00;;;0.60;;
8857;SDS011;4465;50.904;4.696;2024-03-29T11:45:14;2.33;;;0.60;;
8857;SDS011;4465;50.904;4.696;2024-03-29T11:47:40;1.25;;;0.55;;
8857;SDS011;4465;50.904;4.696;2024-03-29T11:50:09;1.25;;;0.65;;
8857;SDS011;4465;50.904;4.696;2024-03-29T11:55:06;0.90;;;0.60;;
8857;SDS011;4465;50.904;4.696;2024-03-29T11:57:34;1.85;;;0.75;;
8857;SDS011;4465;50.904;4.696;2024-03-29T12:00:06;1.15;;;0.68;;
8857;SDS011;4465;50.904;4.696;2024-03-29T12:02:32;1.30;;;0.80;;
8857;SDS011;4465;50.904;4.696;2024-03-29T12:05:04;1.92;;;0.55;;
8857;SDS011;4465;50.904;4.696;2024-03-29T12:07:33;2.10;;;0.70;;
8857;SDS011;4465;50.904;4.696;2024-03-29T12:09:59;2.45;;;0.50;;
8857;SDS011;4465;50.904;4.696;2024-03-29T12:12:28;2.38;;;0.50;;
8857;SDS011;4465;50.904;4.696;2024-03-29T12:14:57;2.03;;;0.60;;
8857;SDS011;4465;50.904;4.696;2024-03-29T12:17:23;0.47;;;0.32;;
8857;SDS011;4465;50.904;4.696;2024-03-29T12:19:49;0.60;;;0.40;;
8857;SDS011;4465;50.904;4.696;2024-03-29T12:22:23;2.25;;;0.75;;
8857;SDS011;4465;50.904;4.696;2024-03-29T12:24:50;0.47;;;0.30;;
8857;SDS011;4465;50.904;4.696;2024-03-29T12:27:18;1.05;;;0.50;;
8857;SDS011;4465;50.904;4.696;2024-03-29T12:29:44;1.00;;;0.50;;
8857;SDS011;4465;50.904;4.696;2024-03-29T12:32:18;1.00;;;0.40;;
8857;SDS011;4465;50.904;4.696;2024-03-29T12:34:44;0.85;;;0.45;;
8857;SDS011;4465;50.904;4.696;2024-03-29T12:37:13;0.52;;;0.40;;
8857;SDS011;4465;50.904;4.696;2024-03-29T12:39:41;0.65;;;0.43;;
8857;SDS011;4465;50.904;4.696;2024-03-29T12:42:07;0.32;;;0.30;;
8857;SDS011;4465;50.904;4.696;2024-03-29T12:44:35;1.67;;;0.70;;
8857;SDS011;4465;50.904;4.696;2024-03-29T12:47:02;2.83;;;0.40;;
8857;SDS011;4465;50.904;4.696;2024-03-29T12:49:30;0.70;;;0.40;;
8857;SDS011;4465;50.904;4.696;2024-03-29T12:52:01;0.82;;;0.47;;
8857;SDS011;4465;50.904;4.696;2024-03-29T12:54:27;1.25;;;0.35;;
8857;SDS011;4465;50.904;4.696;2024-03-29T12:56:53;1.38;;;0.50;;
8857;SDS011;4465;50.904;4.696;2024-03-29T12:59:19;2.10;;;0.55;;
8857;SDS011;4465;50.904;4.696;2024-03-29T13:01:48;1.02;;;0.30;;
8857;SDS011;4465;50.904;4.696;2024-03-29T13:04:16;1.05;;;0.45;;
8857;SDS011;4465;50.904;4.696;2024-03-29T13:06:42;2.60;;;0.60;;
8857;SDS011;4465;50.904;4.696;2024-03-29T13:09:08;0.55;;;0.40;;
8857;SDS011;4465;50.904;4.696;2024-03-29T13:11:34;0.55;;;0.30;;
8857;SDS011;4465;50.904;4.696;2024-03-29T13:14:00;0.60;;;0.40;;
8857;SDS011;4465;50.904;4.696;2024-03-29T13:16:26;0.45;;;0.30;;
8857;SDS011;4465;50.904;4.696;2024-03-29T13:18:52;1.02;;;0.40;;
8857;SDS011;4465;50.904;4.696;2024-03-29T13:21:18;0.70;;;0.30;;
8857;SDS011;4465;50.904;4.696;2024-03-29T13:23:44;1.77;;;0.40;;
8857;SDS011;4465;50.904;4.696;2024-03-29T13:26:10;2.60;;;0.60;;
8857;SDS011;4465;50.904;4.696;2024-03-29T13:28:38;0.30;;;0.30;;
8857;SDS011;4465;50.904;4.696;2024-03-29T13:31:04;3.42;;;0.70;;
8857;SDS011;4465;50.904;4.696;2024-03-29T13:33:32;0.88;;;0.43;;
8857;SDS011;4465;50.904;4.696;2024-03-29T13:36:01;1.90;;;0.70;;
8857;SDS011;4465;50.904;4.696;2024-03-29T13:38:27;2.50;;;0.50;;
8857;SDS011;4465;50.904;4.696;2024-03-29T13:40:53;0.98;;;0.40;;
8857;SDS011;4465;50.904;4.696;2024-03-29T13:43:19;1.42;;;0.70;;
8857;SDS011;4465;50.904;4.696;2024-03-29T13:45:48;1.33;;;0.60;;
8857;SDS011;4465;50.904;4.696;2024-03-29T13:48:19;0.60;;;0.50;;
8857;SDS011;4465;50.904;4.696;2024-03-29T13:50:49;1.08;;;0.57;;
8857;SDS011;4465;50.904;4.696;2024-03-29T13:53:15;1.05;;;0.40;;
8857;SDS011;4465;50.904;4.696;2024-03-29T13:55:41;1.90;;;0.60;;
8857;SDS011;4465;50.904;4.696;2024-03-29T13:58:07;0.80;;;0.65;;
8857;SDS011;4465;50.904;4.696;2024-03-29T14:00:33;0.70;;;0.50;;
8857;SDS011;4465;50.904;4.696;2024-03-29T14:02:59;1.30;;;0.50;;
8857;SDS011;4465;50.904;4.696;2024-03-29T14:05:25;0.95;;;0.60;;
8857;SDS011;4465;50.904;4.696;2024-03-29T14:07:51;1.70;;;0.75;;
8857;SDS011;4465;50.904;4.696;2024-03-29T14:10:17;0.85;;;0.40;;
8857;SDS011;4465;50.904;4.696;2024-03-29T14:12:44;4.05;;;0.47;;
8857;SDS011;4465;50.904;4.696;2024-03-29T14:15:11;1.67;;;0.70;;
8857;SDS011;4465;50.904;4.696;2024-03-29T14:17:36;1.33;;;0.60;;
8857;SDS011;4465;50.904;4.696;2024-03-29T14:20:03;2.45;;;0.55;;
8857;SDS011;4465;50.904;4.696;2024-03-29T14:22:31;0.95;;;0.40;;
8857;SDS011;4465;50.904;4.696;2024-03-29T14:24:59;0.82;;;0.52;;
8857;SDS011;4465;50.904;4.696;2024-03-29T14:27:30;1.88;;;0.60;;
8857;SDS011;4465;50.904;4.696;2024-03-29T14:30:04;2.45;;;0.80;;
8857;SDS011;4465;50.904;4.696;2024-03-29T14:32:31;1.45;;;0.90;;
8857;SDS011;4465;50.904;4.696;2024-03-29T14:34:57;1.95;;;0.80;;
8857;SDS011;4465;50.904;4.696;2024-03-29T14:37:25;1.38;;;0.80;;
8857;SDS011;4465;50.904;4.696;2024-03-29T14:39:51;2.90;;;0.80;;
8857;SDS011;4465;50.904;4.696;2024-03-29T14:42:20;1.88;;;0.70;;
8857;SDS011;4465;50.904;4.696;2024-03-29T14:44:48;0.77;;;0.60;;
8857;SDS011;4465;50.904;4.696;2024-03-29T14:47:14;3.85;;;1.48;;
8857;SDS011;4465;50.904;4.696;2024-03-29T14:49:44;2.45;;;0.70;;
8857;SDS011;4465;50.904;4.696;2024-03-29T14:52:15;2.28;;;0.90;;
8857;SDS011;4465;50.904;4.696;2024-03-29T14:54:41;3.20;;;1.13;;
8857;SDS011;4465;50.904;4.696;2024-03-29T14:57:07;2.75;;;1.15;;
8857;SDS011;4465;50.904;4.696;2024-03-29T14:59:33;3.53;;;1.05;;
8857;SDS011;4465;50.904;4.696;2024-03-29T15:02:05;2.03;;;1.00;;
8857;SDS011;4465;50.904;4.696;2024-03-29T15:04:31;2.08;;;0.80;;
8857;SDS011;4465;50.904;4.696;2024-03-29T15:06:57;2.87;;;1.00;;
8857;SDS011;4465;50.904;4.696;2024-03-29T15:09:27;2.85;;;0.98;;
8857;SDS011;4465;50.904;4.696;2024-03-29T15:11:53;2.58;;;1.00;;
8857;SDS011;4465;50.904;4.696;2024-03-29T15:14:21;3.13;;;0.88;;
8857;SDS011;4465;50.904;4.696;2024-03-29T15:16:47;2.60;;;0.88;;
8857;SDS011;4465;50.904;4.696;2024-03-29T15:19:16;1.65;;;0.82;;
8857;SDS011;4465;50.904;4.696;2024-03-29T15:21:45;1.30;;;0.70;;
8857;SDS011;4465;50.904;4.696;2024-03-29T15:26:43;2.40;;;0.75;;
8857;SDS011;4465;50.904;4.696;2024-03-29T15:29:11;1.40;;;1.00;;
8857;SDS011;4465;50.904;4.696;2024-03-29T15:31:41;2.65;;;0.93;;
8857;SDS011;4465;50.904;4.696;2024-03-29T15:34:12;3.55;;;0.82;;